• Join FlightAware (Why Join?)
  • Login
  • US Flag 
12:59AM EDT


 

Airport Tracker/Info


-or-


 

Live Flight TrackerFlight Track Log ✈ N487VC ✈ 21-Apr-2013 ✈ KBED - KFRG

Flight Track Log - Related Links

Times and Time Zones

All times are in EDT time to prevent confusion due to time zone crossing. See the N487VC flight status page for this flight to view local times or setup timezone preferences in your user account.

Time Position Orientation Groundspeed Altitude Reporting Facility
EDT Latitude Longitude Course Direction KTS MPH feet Rate Location/Type
01:35PM 42.4667 -71.3833 267° West 175 201 3,100  Level KA90
01:36PM 42.4167 -71.3667 166° South 168 193 6,000 2,220 Climbing KA90
01:37PM 42.3667 -71.3333 154° Southeast 193 222 7,800 1,560 Climbing KA90
01:38PM 42.3333 -71.3333 180° South 202 232 9,100 1,260 Climbing KA90
01:39PM 42.2619 -71.3797 206° Southwest 214 246 10,600 1,500 Climbing Boston Center
01:40PM 42.2000 -71.4228 207° Southwest 214 246 12,800 1,500 Climbing Boston Center
01:41PM 42.1481 -71.4572 206° Southwest 214 246 14,000 600 Climbing Boston Center
01:42PM 42.0942 -71.4972 209° Southwest 220 253 14,000  Level Boston Center
01:43PM 42.0364 -71.5400 209° Southwest 226 260 14,000  Level Boston Center
01:44PM 41.9761 -71.5800 206° Southwest 236 272 14,000  Level Boston Center
01:45PM 41.9222 -71.6281 214° Southwest 241 277 14,000  Level Boston Center
01:46PM 41.8811 -71.6817 224° Southwest 236 272 14,000  Level Boston Center
01:47PM 41.8272 -71.7408 219° Southwest 236 272 14,000  Level Boston Center
01:48PM 41.7836 -71.7942 222° Southwest 236 272 14,000  Level Boston Center
01:49PM 41.7319 -71.8586 223° Southwest 236 272 14,000  Level Boston Center
01:50PM 41.6864 -71.9119 221° Southwest 236 272 14,000  Level Boston Center
01:51PM 41.6347 -71.9764 223° Southwest 236 272 14,000  Level Boston Center
01:52PM 41.5911 -72.0267 221° Southwest 236 272 14,000  Level Boston Center
01:53PM 41.5369 -72.0906 221° Southwest 236 272 14,000  Level Boston Center
01:54PM 41.4933 -72.1436 222° Southwest 236 272 14,000  Level Boston Center
01:55PM 41.4394 -72.2103 223° Southwest 236 272 14,000  Level Boston Center
01:56PM 41.3936 -72.2603 219° Southwest 236 272 14,000  Level Boston Center
01:57PM 41.3394 -72.3239 221° Southwest 236 272 14,000  Level Boston Center
01:58PM 41.2917 -72.3822 223° Southwest 236 272 14,000  Level Boston Center
01:59PM 41.2458 -72.4289 217° Southwest 236 272 14,000  Level Boston Center
02:00PM 41.1917 -72.4925 221° Southwest 236 272 14,000  Level Boston Center
02:01PM 41.1458 -72.5475 222° Southwest 236 272 14,000 -60 Level Boston Center
02:02PM 41.0956 -72.6081 222° Southwest 236 272 13,900 -540 Descending Boston Center
02:03PM 41.0414 -72.6658 219° Southwest 236 272 13,000 -540 Descending Boston Center
02:04PM 40.9869 -72.7261 220° Southwest 247 284 12,900 -540 Descending Boston Center
02:05PM 40.9333 -72.8000 226° Southwest 224 258 11,900 -420 Descending New York TRACON
02:06PM 40.8833 -72.8500 217° Southwest 228 262 12,000 -600 Climbing New York TRACON
02:07PM 40.8333 -72.9167 225° Southwest 251 289 10,800 -1,320 Descending New York TRACON
02:08PM 40.7833 -72.9667 217° Southwest 267 307 9,400 -1,380 Descending New York TRACON
02:09PM 40.7500 -73.0500 242° Southwest 236 272 8,100 -1,320 Descending New York TRACON
02:10PM 40.7333 -73.1167 252° West 226 260 6,900 -1,860 Descending New York TRACON
02:11PM 40.7167 -73.2000 255° West 226 260 4,400 -2,100 Descending New York TRACON
02:12PM 40.6833 -73.2500 229° Southwest 213 245 2,800 -1,320 Descending New York TRACON
02:13PM 40.6500 -73.3167 237° Southwest 190 219 1,900 -540 Descending New York TRACON
02:14PM 40.6500 -73.3667 270° West 143 165 1,800 -180 Descending New York TRACON
02:15PM 40.6667 -73.4167 294° West 133 153 1,600 -600 Descending New York TRACON
02:16PM 40.7000 -73.4167 360° North 109 125 700 -900 Descending New York TRACON
02:18PM 40.7167 -73.4000 37° Northeast  Level FlightAware Approximate
02:25PM 40.7288 -73.4134 37° Northeast  Level Estimated
02:26PM 40.7288 -73.4134 37° Northeast  Level Estimated